createdAt,value
2018-07-21T00:01:24.286Z,20.30
2018-07-21T00:03:52.566Z,20.20
2018-07-21T00:06:20.668Z,20.20
2018-07-21T00:08:48.798Z,20.10
2018-07-21T00:11:16.882Z,20.10
2018-07-21T00:13:44.966Z,20.10
2018-07-21T00:18:40.953Z,20.10
2018-07-21T00:21:09.082Z,20.00
2018-07-21T00:23:37.158Z,20.00
2018-07-21T00:28:33.136Z,20.00
2018-07-21T00:31:01.222Z,20.00
2018-07-21T00:33:29.313Z,20.00
2018-07-21T00:35:57.670Z,20.00
2018-07-21T00:38:25.786Z,20.00
2018-07-21T00:40:53.869Z,19.90
2018-07-21T00:43:21.973Z,19.90
2018-07-21T00:45:50.066Z,19.80
2018-07-21T00:48:18.158Z,19.80
2018-07-21T00:50:46.514Z,19.80
2018-07-21T00:53:14.655Z,19.70
2018-07-21T00:55:42.743Z,19.80
2018-07-21T00:58:10.830Z,19.60
2018-07-21T01:00:38.908Z,19.60
2018-07-21T01:03:06.970Z,19.60
2018-07-21T01:05:35.142Z,19.50
2018-07-21T01:08:03.199Z,19.50
2018-07-21T01:10:31.520Z,19.50
2018-07-21T01:12:59.974Z,19.40
2018-07-21T01:15:28.357Z,19.40
2018-07-21T01:17:56.426Z,19.40
2018-07-21T01:20:24.538Z,19.40
2018-07-21T01:22:52.603Z,19.50
2018-07-21T01:25:20.667Z,19.40
2018-07-21T01:27:49.139Z,19.40
2018-07-21T01:30:17.326Z,19.30
2018-07-21T01:32:45.416Z,19.30
2018-07-21T01:35:13.474Z,19.30
2018-07-21T01:37:41.550Z,19.30
2018-07-21T01:40:09.598Z,19.30
2018-07-21T01:42:37.658Z,19.30
2018-07-21T01:45:05.858Z,19.30
2018-07-21T01:47:33.938Z,19.20
2018-07-21T01:50:02.378Z,19.20
2018-07-21T01:52:30.478Z,19.20
2018-07-21T01:54:58.643Z,19.30
2018-07-21T01:57:26.756Z,19.20
2018-07-21T01:59:54.833Z,19.20
2018-07-21T02:02:22.902Z,19.20
2018-07-21T02:04:51.154Z,19.20
2018-07-21T02:07:19.251Z,19.10
2018-07-21T02:12:15.706Z,19.00
2018-07-21T02:14:43.778Z,18.90
2018-07-21T02:17:11.846Z,18.90
2018-07-21T02:19:39.954Z,18.90
2018-07-21T02:22:08.031Z,18.90
2018-07-21T02:24:36.142Z,18.90
2018-07-21T02:29:32.582Z,18.90
2018-07-21T02:32:00.728Z,18.90
2018-07-21T02:34:28.802Z,18.90
2018-07-21T02:36:56.963Z,18.90
2018-07-21T02:39:25.132Z,18.90
2018-07-21T02:41:53.227Z,18.90
2018-07-21T02:44:21.418Z,18.90
2018-07-21T02:46:49.502Z,18.90
2018-07-21T02:49:17.846Z,18.90
2018-07-21T02:51:45.918Z,18.90
2018-07-21T02:54:13.996Z,18.80
2018-07-21T02:56:42.062Z,18.80
2018-07-21T02:59:10.134Z,18.80
2018-07-21T03:01:38.219Z,18.80
2018-07-21T03:04:06.302Z,18.80
2018-07-21T03:06:34.361Z,18.80
2018-07-21T03:09:02.448Z,18.80
2018-07-21T03:11:30.821Z,18.80
2018-07-21T03:13:58.894Z,18.70
2018-07-21T03:16:26.971Z,18.70
2018-07-21T03:18:55.089Z,18.70
2018-07-21T03:21:23.191Z,18.70
2018-07-21T03:23:51.271Z,18.70
2018-07-21T03:26:19.690Z,18.70
2018-07-21T03:28:47.751Z,18.70
2018-07-21T03:31:15.807Z,18.70
2018-07-21T03:33:43.998Z,18.70
2018-07-21T03:36:12.078Z,18.60
2018-07-21T03:38:40.137Z,18.60
2018-07-21T03:41:08.586Z,18.60
2018-07-21T03:43:36.659Z,18.60
2018-07-21T03:46:04.921Z,18.60
2018-07-21T03:48:33.017Z,18.60
2018-07-21T03:51:01.169Z,18.60
2018-07-21T03:53:29.223Z,18.50
2018-07-21T03:55:57.293Z,18.50
2018-07-21T03:58:25.365Z,18.50
2018-07-21T04:00:53.454Z,18.50
2018-07-21T04:03:21.806Z,18.50
2018-07-21T04:05:49.990Z,18.50
2018-07-21T04:08:18.098Z,18.40
2018-07-21T04:10:46.182Z,18.40
2018-07-21T04:13:14.270Z,18.30
2018-07-21T04:15:42.342Z,18.30
2018-07-21T04:18:10.415Z,18.30
2018-07-21T04:20:38.486Z,18.30
2018-07-21T04:23:06.563Z,18.30
2018-07-21T04:25:35.007Z,18.30
2018-07-21T04:28:03.082Z,18.20
2018-07-21T04:30:31.156Z,18.20
2018-07-21T04:32:59.235Z,18.10
2018-07-21T04:35:27.300Z,18.10
2018-07-21T04:37:55.375Z,18.10
2018-07-21T04:40:23.850Z,18.10
2018-07-21T04:42:51.930Z,18.00
2018-07-21T04:45:20.018Z,18.00
2018-07-21T04:47:48.368Z,18.00
2018-07-21T04:50:16.521Z,18.00
2018-07-21T04:52:44.622Z,18.00
2018-07-21T04:55:12.698Z,18.00
2018-07-21T04:57:40.773Z,18.00
2018-07-21T05:00:09.004Z,18.00
2018-07-21T05:02:37.170Z,18.00
2018-07-21T05:05:05.240Z,18.00
2018-07-21T05:07:33.344Z,18.00
2018-07-21T05:10:01.612Z,18.00
2018-07-21T05:12:29.709Z,18.00
2018-07-21T05:14:57.794Z,18.00
2018-07-21T05:17:26.123Z,18.00
2018-07-21T05:19:54.197Z,18.10
2018-07-21T05:22:22.278Z,18.10
2018-07-21T05:24:50.682Z,18.20
2018-07-21T05:27:18.773Z,18.20
2018-07-21T05:29:46.854Z,18.20
2018-07-21T05:32:14.948Z,18.30
2018-07-21T05:34:43.032Z,18.40
2018-07-21T05:37:11.086Z,18.50
2018-07-21T05:42:07.089Z,18.60
2018-07-21T05:44:35.179Z,18.70
2018-07-21T05:47:03.493Z,18.80
2018-07-21T05:49:31.579Z,18.80
2018-07-21T05:51:59.642Z,18.80
2018-07-21T05:54:28.003Z,18.90
2018-07-21T05:56:56.066Z,19.00
2018-07-21T05:59:24.177Z,19.10
2018-07-21T06:01:52.567Z,19.10
2018-07-21T06:04:20.643Z,19.20
2018-07-21T06:06:48.726Z,19.30
2018-07-21T06:09:17.038Z,19.40
2018-07-21T06:11:45.146Z,19.50
2018-07-21T06:14:13.218Z,19.60
2018-07-21T06:16:41.613Z,19.60
2018-07-21T06:19:09.778Z,19.70
2018-07-21T06:21:37.870Z,19.80
2018-07-21T06:24:06.240Z,20.00
2018-07-21T06:26:34.312Z,20.00
2018-07-21T06:29:02.383Z,20.10
2018-07-21T06:31:30.698Z,20.20
2018-07-21T06:33:58.762Z,20.30
2018-07-21T06:36:26.832Z,20.30
2018-07-21T06:38:55.184Z,20.40
2018-07-21T06:41:23.326Z,20.40
2018-07-21T06:43:51.583Z,20.50
2018-07-21T06:46:19.610Z,20.60
2018-07-21T06:48:47.682Z,20.70
2018-07-21T06:51:15.754Z,20.80
2018-07-21T06:53:44.243Z,20.90
2018-07-21T06:56:12.306Z,21.00
2018-07-21T06:58:40.390Z,21.00
2018-07-21T07:01:08.714Z,21.10
2018-07-21T07:03:36.790Z,21.10
2018-07-21T07:06:04.886Z,21.20
2018-07-21T07:08:33.275Z,21.30
2018-07-21T07:11:01.350Z,21.40
2018-07-21T07:13:29.420Z,21.50
2018-07-21T07:15:59.204Z,21.50
2018-07-21T07:18:27.322Z,21.60
2018-07-21T07:20:55.398Z,21.70
2018-07-21T07:23:23.747Z,21.80
2018-07-21T07:25:51.866Z,21.90
2018-07-21T07:28:19.986Z,22.00
2018-07-21T07:30:48.334Z,22.00
2018-07-21T07:33:16.938Z,22.10
2018-07-21T07:38:13.607Z,22.30
2018-07-21T07:40:42.445Z,22.30
2018-07-21T07:43:10.571Z,22.40
2018-07-21T07:45:45.356Z,22.40
2018-07-21T07:48:13.505Z,22.60
2018-07-21T07:50:41.602Z,22.60
2018-07-21T07:53:09.689Z,22.60
2018-07-21T07:55:37.762Z,22.60
2018-07-21T07:58:05.834Z,22.70
2018-07-21T08:00:34.257Z,22.80
2018-07-21T08:03:02.744Z,22.90
2018-07-21T08:05:31.022Z,23.00
2018-07-21T08:07:59.582Z,23.10
2018-07-21T08:10:27.883Z,23.10
2018-07-21T08:12:56.007Z,23.20
2018-07-21T08:15:24.410Z,23.30
2018-07-21T08:17:52.579Z,23.40
2018-07-21T08:20:20.707Z,23.40
2018-07-21T08:22:49.159Z,23.50
2018-07-21T08:25:17.250Z,23.50
2018-07-21T08:27:45.330Z,23.50
2018-07-21T08:30:13.473Z,23.70
2018-07-21T08:32:41.993Z,23.70
2018-07-21T08:35:10.078Z,23.80
2018-07-21T08:37:38.594Z,23.90
2018-07-21T08:40:08.026Z,23.90
2018-07-21T08:42:36.127Z,24.00
2018-07-21T08:45:04.514Z,24.10
2018-07-21T08:47:32.595Z,24.30
2018-07-21T08:50:00.718Z,24.30
2018-07-21T08:52:29.187Z,24.40
2018-07-21T08:54:57.270Z,24.50
2018-07-21T08:57:25.578Z,24.60
2018-07-21T08:59:53.694Z,24.70
2018-07-21T09:02:21.778Z,24.80
2018-07-21T09:04:50.009Z,25.00
2018-07-21T09:07:18.883Z,25.10
2018-07-21T09:09:46.958Z,25.20
2018-07-21T09:14:43.160Z,25.40
2018-07-21T09:17:11.244Z,25.50
2018-07-21T09:19:39.335Z,25.50
2018-07-21T09:22:07.666Z,25.60
2018-07-21T09:24:35.726Z,25.80
2018-07-21T09:27:03.791Z,25.90
2018-07-21T09:29:31.876Z,26.00
2018-07-21T09:31:59.953Z,26.10
2018-07-21T09:34:27.998Z,26.10
2018-07-21T09:36:56.391Z,26.10
2018-07-21T09:39:24.478Z,26.20
2018-07-21T09:41:52.568Z,26.30
2018-07-21T09:44:21.150Z,26.40
2018-07-21T09:46:49.246Z,26.60
2018-07-21T09:49:17.433Z,26.70
2018-07-21T09:51:45.678Z,26.80
2018-07-21T09:54:13.829Z,26.90
2018-07-21T09:56:41.906Z,27.10
2018-07-21T09:59:10.306Z,27.20
2018-07-21T10:01:38.463Z,27.30
2018-07-21T10:04:06.533Z,27.30
2018-07-21T10:06:34.914Z,27.50
2018-07-21T10:09:03.078Z,27.60
2018-07-21T10:11:31.159Z,27.60
2018-07-21T10:13:59.683Z,27.70
2018-07-21T10:16:27.777Z,27.80
2018-07-21T10:18:55.842Z,27.80
2018-07-21T10:23:52.196Z,28.20
2018-07-21T10:28:59.658Z,28.30
2018-07-21T10:31:28.003Z,28.30
2018-07-21T10:33:56.090Z,28.30
2018-07-21T10:36:24.224Z,28.40
2018-07-21T10:38:52.390Z,28.50
2018-07-21T10:41:20.632Z,28.60
2018-07-21T10:43:48.722Z,28.70
2018-07-21T10:46:16.823Z,28.80
2018-07-21T10:51:12.788Z,28.90
2018-07-21T10:53:41.193Z,28.90
2018-07-21T10:56:09.280Z,28.90
2018-07-21T10:58:37.390Z,29.00
2018-07-21T11:01:05.708Z,29.20
2018-07-21T11:03:33.782Z,29.30
2018-07-21T11:06:01.954Z,29.30
2018-07-21T11:08:30.307Z,29.40
2018-07-21T11:10:58.477Z,29.40
2018-07-21T11:13:26.659Z,29.50
2018-07-21T11:15:55.051Z,29.70
2018-07-21T11:18:23.134Z,29.90
2018-07-21T11:20:51.248Z,29.90
2018-07-21T11:23:19.601Z,30.00
2018-07-21T11:25:47.673Z,30.10
2018-07-21T11:28:15.773Z,30.20
2018-07-21T11:33:12.015Z,30.30
2018-07-21T11:35:40.321Z,30.30
2018-07-21T11:38:08.206Z,30.30
2018-07-21T11:40:36.266Z,30.30
2018-07-21T11:43:04.401Z,30.30
2018-07-21T11:45:32.734Z,30.10
2018-07-21T11:48:00.823Z,30.00
2018-07-21T11:50:28.882Z,29.70
2018-07-21T11:52:57.263Z,29.50
2018-07-21T11:55:25.344Z,29.40
2018-07-21T11:57:53.415Z,29.30
2018-07-21T12:00:21.794Z,29.30
2018-07-21T12:02:49.866Z,29.60
2018-07-21T12:05:18.061Z,29.60
2018-07-21T12:07:46.381Z,29.70
2018-07-21T12:10:14.438Z,29.90
2018-07-21T12:12:42.547Z,29.90
2018-07-21T12:15:10.666Z,29.70
2018-07-21T12:17:38.751Z,29.70
2018-07-21T12:20:06.867Z,29.70
2018-07-21T12:22:35.257Z,29.80
2018-07-21T12:25:03.349Z,30.10
2018-07-21T12:27:31.437Z,30.10
2018-07-21T12:32:28.514Z,29.60
2018-07-21T12:34:56.642Z,29.70
2018-07-21T12:37:24.726Z,29.60
2018-07-21T12:39:52.794Z,29.50
2018-07-21T12:42:20.875Z,29.30
2018-07-21T12:44:48.984Z,29.50
2018-07-21T12:47:17.082Z,29.70
2018-07-21T12:49:45.182Z,29.90
2018-07-21T12:52:13.892Z,29.90
2018-07-21T12:54:41.938Z,30.00
2018-07-21T12:57:10.421Z,30.30
2018-07-21T12:59:38.786Z,30.40
2018-07-21T13:02:06.870Z,30.50
2018-07-21T13:04:34.986Z,30.30
2018-07-21T13:07:03.408Z,29.90
2018-07-21T13:09:31.510Z,29.70
2018-07-21T13:11:59.642Z,29.50
2018-07-21T13:14:28.034Z,29.30
2018-07-21T13:16:56.200Z,29.00
2018-07-21T13:19:24.250Z,28.90
2018-07-21T13:21:52.364Z,28.90
2018-07-21T13:24:20.438Z,28.80
2018-07-21T13:26:48.522Z,28.80
2018-07-21T13:29:16.890Z,28.90
2018-07-21T13:31:45.030Z,28.90
2018-07-21T13:34:13.049Z,28.90
2018-07-21T13:36:41.406Z,28.80
2018-07-21T13:39:11.130Z,28.80
2018-07-21T13:41:39.458Z,28.70
2018-07-21T13:44:07.963Z,28.70
2018-07-21T13:46:36.047Z,28.70
2018-07-21T13:49:04.131Z,28.80
2018-07-21T13:51:32.903Z,29.00
2018-07-21T13:54:01.713Z,29.30
2018-07-21T13:56:30.799Z,29.50
2018-07-21T13:58:59.086Z,29.50
2018-07-21T14:01:27.180Z,29.20
2018-07-21T14:03:55.262Z,29.10
2018-07-21T14:06:23.629Z,29.20
2018-07-21T14:08:51.717Z,29.50
2018-07-21T14:11:19.817Z,29.80
2018-07-21T14:13:48.214Z,29.80
2018-07-21T14:16:16.755Z,29.70
2018-07-21T14:18:44.927Z,29.60
2018-07-21T14:21:13.352Z,29.70
2018-07-21T14:23:41.425Z,30.00
2018-07-21T14:26:09.525Z,30.30
2018-07-21T14:28:37.811Z,30.30
2018-07-21T14:31:06.030Z,30.30
2018-07-21T14:33:34.130Z,30.30
2018-07-21T14:36:02.330Z,30.10
2018-07-21T14:38:30.358Z,29.90
2018-07-21T14:40:58.442Z,29.80
2018-07-21T14:43:26.506Z,29.70
2018-07-21T14:45:54.651Z,29.50
2018-07-21T14:48:22.743Z,29.70
2018-07-21T14:50:51.126Z,30.10
2018-07-21T14:53:19.301Z,30.40
2018-07-21T14:55:47.362Z,30.20
2018-07-21T14:58:15.754Z,30.00
2018-07-21T15:00:43.826Z,29.80
2018-07-21T15:03:11.900Z,29.60
2018-07-21T15:05:40.277Z,29.50
2018-07-21T15:08:08.370Z,29.20
2018-07-21T15:10:36.486Z,29.10
2018-07-21T15:13:04.926Z,29.30
2018-07-21T15:15:32.998Z,29.80
2018-07-21T15:18:01.051Z,30.30
2018-07-21T15:20:29.144Z,30.90
2018-07-21T15:22:57.222Z,31.20
2018-07-21T15:25:25.319Z,31.40
2018-07-21T15:27:53.539Z,31.20
2018-07-21T15:30:21.598Z,31.20
2018-07-21T15:32:49.710Z,31.80
2018-07-21T15:35:18.080Z,31.90
2018-07-21T15:37:46.891Z,31.80
2018-07-21T15:40:14.929Z,32.10
2018-07-21T15:42:43.364Z,32.40
2018-07-21T15:45:11.451Z,32.60
2018-07-21T15:47:39.574Z,32.80
2018-07-21T15:50:07.918Z,33.10
2018-07-21T15:52:36.085Z,33.50
2018-07-21T15:55:04.318Z,33.50
2018-07-21T15:57:32.751Z,33.20
2018-07-21T16:00:00.834Z,33.30
2018-07-21T16:02:28.932Z,33.50
2018-07-21T16:04:56.987Z,33.70
2018-07-21T16:07:25.060Z,34.00
2018-07-21T16:09:53.201Z,34.00
2018-07-21T16:12:21.294Z,34.00
2018-07-21T16:14:49.783Z,34.30
2018-07-21T16:17:17.843Z,34.60
2018-07-21T16:19:46.224Z,34.90
2018-07-21T16:22:14.285Z,35.30
2018-07-21T16:24:42.502Z,35.30
2018-07-21T16:27:10.947Z,35.30
2018-07-21T16:29:39.009Z,35.30
2018-07-21T16:32:07.090Z,35.40
2018-07-21T16:34:35.449Z,35.60
2018-07-21T16:37:04.086Z,35.80
2018-07-21T16:39:32.161Z,35.80
2018-07-21T16:42:00.502Z,35.80
2018-07-21T16:44:28.599Z,35.90
2018-07-21T16:46:56.666Z,35.90
2018-07-21T16:49:25.298Z,35.90
2018-07-21T16:51:53.386Z,35.80
2018-07-21T16:54:21.494Z,35.80
2018-07-21T16:56:49.866Z,35.50
2018-07-21T16:59:18.056Z,34.70
2018-07-21T17:01:46.147Z,33.80
2018-07-21T17:06:42.426Z,32.30
2018-07-21T17:09:11.254Z,31.70
2018-07-21T17:11:39.815Z,31.20
2018-07-21T17:14:12.758Z,30.80
2018-07-21T17:16:41.062Z,30.50
2018-07-21T17:19:09.175Z,30.30
2018-07-21T17:21:37.330Z,29.90
2018-07-21T17:24:05.707Z,29.70
2018-07-21T17:26:33.778Z,29.50
2018-07-21T17:29:01.857Z,29.30
2018-07-21T17:31:30.230Z,29.20
2018-07-21T17:33:58.368Z,28.90
2018-07-21T17:36:26.457Z,28.70
2018-07-21T17:38:54.958Z,28.60
2018-07-21T17:41:23.041Z,28.50
2018-07-21T17:43:51.211Z,28.40
2018-07-21T17:46:19.347Z,28.20
2018-07-21T17:48:47.510Z,28.10
2018-07-21T17:51:15.939Z,27.90
2018-07-21T17:53:44.310Z,27.90
2018-07-21T17:56:12.592Z,27.70
2018-07-21T17:58:40.669Z,27.60
2018-07-21T18:01:09.035Z,27.40
2018-07-21T18:03:37.118Z,27.20
2018-07-21T18:06:05.257Z,27.10
2018-07-21T18:08:33.662Z,27.00
2018-07-21T18:11:01.795Z,26.90
2018-07-21T18:13:29.900Z,26.90
2018-07-21T18:15:58.538Z,26.80
2018-07-21T18:18:26.693Z,26.70
2018-07-21T18:20:54.762Z,26.70
2018-07-21T18:23:23.174Z,26.50
2018-07-21T18:25:51.282Z,26.40
2018-07-21T18:28:19.366Z,26.30
2018-07-21T18:30:47.711Z,26.10
2018-07-21T18:33:15.802Z,26.10
2018-07-21T18:35:43.887Z,26.00
2018-07-21T18:38:12.575Z,25.80
2018-07-21T18:40:40.654Z,25.70
2018-07-21T18:43:08.814Z,25.60
2018-07-21T18:45:37.242Z,25.60
2018-07-21T18:48:05.562Z,25.60
2018-07-21T18:50:33.750Z,25.50
2018-07-21T18:53:01.832Z,25.40
2018-07-21T18:55:30.254Z,25.40
2018-07-21T18:57:58.342Z,25.30
2018-07-21T19:00:26.700Z,25.30
2018-07-21T19:02:54.886Z,25.30
2018-07-21T19:05:22.996Z,25.10
2018-07-21T19:07:51.530Z,25.10
2018-07-21T19:10:19.627Z,25.10
2018-07-21T19:12:48.294Z,25.00
2018-07-21T19:16:20.737Z,24.90
2018-07-21T19:18:49.376Z,24.90
2018-07-21T19:21:18.931Z,24.70
2018-07-21T19:23:48.193Z,24.70
2018-07-21T19:26:21.606Z,24.60
2018-07-21T19:28:54.972Z,24.50
2018-07-21T19:33:51.098Z,24.30
2018-07-21T19:36:19.542Z,24.30
2018-07-21T19:38:47.925Z,24.10
2018-07-21T19:41:21.702Z,24.10
2018-07-21T19:43:49.869Z,24.10
2018-07-21T19:46:17.941Z,24.00
2018-07-21T19:48:47.516Z,24.00
2018-07-21T19:51:15.730Z,24.00
2018-07-21T19:53:43.965Z,24.00
2018-07-21T19:56:13.021Z,24.00
2018-07-21T19:58:41.394Z,23.90
2018-07-21T20:01:09.682Z,23.80
2018-07-21T20:03:38.089Z,23.80
2018-07-21T20:06:06.191Z,23.80
2018-07-21T20:08:34.324Z,23.70
2018-07-21T20:11:02.822Z,23.70
2018-07-21T20:13:30.987Z,23.60
2018-07-21T20:15:59.056Z,23.60
2018-07-21T20:18:27.598Z,23.50
2018-07-21T20:20:55.776Z,23.40
2018-07-21T20:25:52.231Z,23.30
2018-07-21T20:28:20.319Z,23.30
2018-07-21T20:30:48.525Z,23.30
2018-07-21T20:33:17.094Z,23.20
2018-07-21T20:35:45.190Z,23.20
2018-07-21T20:40:41.483Z,23.00
2018-07-21T20:43:09.970Z,22.90
2018-07-21T20:45:39.391Z,22.90
2018-07-21T20:48:07.878Z,22.70
2018-07-21T20:50:36.060Z,22.70
2018-07-21T20:55:32.468Z,22.40
2018-07-21T20:58:02.197Z,22.40
2018-07-21T21:00:30.927Z,22.30
2018-07-21T21:02:59.188Z,22.30
2018-07-21T21:05:27.282Z,22.10
2018-07-21T21:07:55.390Z,22.10
2018-07-21T21:10:23.691Z,22.00
2018-07-21T21:12:51.769Z,22.00
2018-07-21T21:15:19.905Z,21.90
2018-07-21T21:17:48.106Z,21.90
2018-07-21T21:20:17.523Z,21.80
2018-07-21T21:22:45.775Z,21.80
2018-07-21T21:25:13.866Z,21.70
2018-07-21T21:27:42.020Z,21.60
2018-07-21T21:30:10.227Z,21.50
2018-07-21T21:35:07.667Z,21.30
2018-07-21T21:37:36.054Z,21.30
2018-07-21T21:40:04.331Z,21.20
2018-07-21T21:42:32.432Z,21.20
2018-07-21T21:45:00.884Z,21.10
2018-07-21T21:47:29.970Z,21.10
2018-07-21T21:49:58.121Z,21.10
2018-07-21T21:52:26.244Z,21.00
2018-07-21T21:54:54.382Z,21.00
2018-07-21T21:57:22.460Z,20.90
2018-07-21T21:59:50.555Z,20.90
2018-07-21T22:02:19.012Z,20.80
2018-07-21T22:04:47.117Z,20.70
2018-07-21T22:07:15.370Z,20.70
2018-07-21T22:09:43.463Z,20.60
2018-07-21T22:12:12.110Z,20.60
2018-07-21T22:14:40.283Z,20.60
2018-07-21T22:17:08.650Z,20.50
2018-07-21T22:19:36.917Z,20.40
2018-07-21T22:22:05.054Z,20.30
2018-07-21T22:29:29.131Z,20.20
2018-07-21T22:31:57.507Z,20.20
2018-07-21T22:34:25.602Z,20.20
2018-07-21T22:36:53.754Z,20.20
2018-07-21T22:39:22.132Z,20.10
2018-07-21T22:41:50.306Z,20.10
2018-07-21T22:44:18.473Z,20.10
2018-07-21T22:46:46.562Z,20.00
2018-07-21T22:49:14.650Z,19.90
2018-07-21T22:51:42.726Z,19.90
2018-07-21T22:54:11.070Z,19.90
2018-07-21T22:56:39.152Z,19.80
2018-07-21T22:59:07.243Z,19.80
2018-07-21T23:04:03.575Z,19.80
2018-07-21T23:06:31.646Z,19.70
2018-07-21T23:09:00.123Z,19.70
2018-07-21T23:11:28.228Z,19.70
2018-07-21T23:13:56.314Z,19.70
2018-07-21T23:18:52.254Z,19.70
2018-07-21T23:21:20.322Z,19.60
2018-07-21T23:23:48.755Z,19.60
2018-07-21T23:26:16.827Z,19.60
2018-07-21T23:28:44.900Z,19.60
2018-07-21T23:31:13.269Z,19.60
2018-07-21T23:33:41.399Z,19.60
2018-07-21T23:36:09.545Z,19.50
2018-07-21T23:38:37.892Z,19.50
2018-07-21T23:41:06.489Z,19.40
2018-07-21T23:43:34.567Z,19.40
2018-07-21T23:46:02.927Z,19.40
2018-07-21T23:48:31.103Z,19.40
2018-07-21T23:50:59.153Z,19.40
2018-07-21T23:53:27.523Z,19.30
2018-07-21T23:55:55.602Z,19.30
2018-07-21T23:58:23.650Z,19.30
